La rose des vents
Donnes mto: Semaine 03/03/08 - 09/03/08 (S 10)
Date Horaire Temp. E. Hum. E. P.atmo. Pluie Vent 1mn Direction Ensoleilleme Ev.Tr. Solaire P. de rose Temp au vent Rafales
03/03/2008 00:00 11,1 C 93 % 1012,1 hPa 0,0 l/m 3,4 km/h (1 Bft) O-SO 0,00 h 0,000 mm 0 W/m 10,0 C 11,1 C 5,1 km/h (1 Bft)
03/03/2008 01:00 10,5 C 93 % 1012,0 hPa 0,0 l/m 2,9 km/h (1 Bft) O-SO 0,00 h 0,025 mm 0 W/m 9,5 C 10,5 C 4,2 km/h (1 Bft)
03/03/2008 02:00 10,5 C 94 % 1011,7 hPa 0,0 l/m 2,9 km/h (1 Bft) O-SO 0,00 h 0,000 mm 0 W/m 9,6 C 10,5 C 4,1 km/h (1 Bft)
03/03/2008 03:00 10,0 C 94 % 1011,2 hPa 0,0 l/m 4,1 km/h (1 Bft) O-SO 0,00 h 0,000 mm 0 W/m 9,0 C 9,8 C 5,5 km/h (1 Bft)
03/03/2008 04:00 9,2 C 94 % 1011,2 hPa 0,0 l/m 4,0 km/h (1 Bft) O 0,00 h 0,000 mm 0 W/m 8,3 C 9,0 C 5,4 km/h (1 Bft)
03/03/2008 05:00 8,4 C 94 % 1011,3 hPa 0,0 l/m 5,0 km/h (1 Bft) O-NO 0,00 h 0,000 mm 0 W/m 7,6 C 8,0 C 6,9 km/h (2 Bft)
03/03/2008 06:00 8,6 C 94 % 1011,4 hPa 0,0 l/m 3,7 km/h (1 Bft) O-NO 0,00 h 0,000 mm 0 W/m 7,7 C 8,4 C 5,9 km/h (2 Bft)
03/03/2008 07:00 8,6 C 94 % 1011,6 hPa 0,2 l/m 4,6 km/h (1 Bft) O-NO 0,05 h 0,000 mm 27 W/m 7,7 C 8,3 C 6,5 km/h (2 Bft)
03/03/2008 08:00 9,9 C 92 % 1011,8 hPa 0,0 l/m 2,3 km/h (1 Bft) O 0,60 h 0,025 mm 160 W/m 8,6 C 9,8 C 3,5 km/h (1 Bft)
03/03/2008 09:00 13,7 C 79 % 1011,5 hPa 0,0 l/m 3,4 km/h (1 Bft) NE 1,00 h 0,076 mm 510 W/m 10,0 C 13,7 C 5,7 km/h (1 Bft)
03/03/2008 10:00 14,5 C 71 % 1011,2 hPa 0,0 l/m 4,6 km/h (1 Bft) S 1,00 h 0,279 mm 518 W/m 9,3 C 14,5 C 7,6 km/h (2 Bft)
03/03/2008 11:00 15,6 C 70 % 1010,4 hPa 0,0 l/m 5,9 km/h (2 Bft) SE 1,00 h 0,279 mm 595 W/m 10,1 C 15,6 C 9,7 km/h (2 Bft)
03/03/2008 12:00 15,5 C 72 % 1009,7 hPa 0,0 l/m 9,5 km/h (2 Bft) E 1,00 h 0,330 mm 631 W/m 10,6 C 15,5 C 14,8 km/h (3 Bft)
03/03/2008 13:00 15,5 C 74 % 1009,1 hPa 0,0 l/m 6,9 km/h (2 Bft) E 1,00 h 0,381 mm 617 W/m 10,9 C 15,5 C 10,6 km/h (2 Bft)
03/03/2008 14:00 15,4 C 74 % 1008,2 hPa 0,0 l/m 5,4 km/h (1 Bft) E 1,00 h 0,356 mm 538 W/m 10,9 C 15,4 C 8,8 km/h (2 Bft)
03/03/2008 15:00 14,8 C 77 % 1007,8 hPa 0,0 l/m 4,7 km/h (1 Bft) E 1,00 h 0,305 mm 414 W/m 10,8 C 14,8 C 8,9 km/h (2 Bft)
03/03/2008 16:00 13,8 C 81 % 1007,7 hPa 0,0 l/m 2,7 km/h (1 Bft) SE 1,00 h 0,229 mm 249 W/m 10,6 C 13,8 C 5,7 km/h (1 Bft)
03/03/2008 17:00 12,9 C 84 % 1007,4 hPa 0,0 l/m 1,6 km/h (1 Bft) SE 0,53 h 0,127 mm 84 W/m 10,3 C 12,9 C 3,8 km/h (1 Bft)
03/03/2008 18:00 11,3 C 88 % 1007,1 hPa 0,0 l/m 1,7 km/h (1 Bft) SE 0,00 h 0,051 mm 9 W/m 9,5 C 11,3 C 3,0 km/h (1 Bft)
03/03/2008 19:00 10,6 C 90 % 1007,1 hPa 0,0 l/m 1,0 km/h (0 Bft) E-SE 0,00 h 0,000 mm 0 W/m 9,1 C 10,6 C 1,5 km/h (1 Bft)
03/03/2008 20:00 10,1 C 91 % 1006,5 hPa 0,0 l/m 0,8 km/h (0 Bft) SE 0,00 h 0,000 mm 0 W/m 8,7 C 10,1 C 1,4 km/h (1 Bft)
03/03/2008 21:00 10,0 C 93 % 1006,5 hPa 0,0 l/m 2,0 km/h (1 Bft) SE 0,00 h 0,000 mm 0 W/m 8,9 C 10,0 C 2,8 km/h (1 Bft)
03/03/2008 22:00 9,8 C 93 % 1006,4 hPa 0,0 l/m 0,4 km/h (0 Bft) NE 0,00 h 0,000 mm 0 W/m 8,7 C 9,8 C 0,8 km/h (0 Bft)
03/03/2008 23:00 9,8 C 94 % 1006,3 hPa 0,0 l/m 1,4 km/h (1 Bft) NE 0,00 h 0,000 mm 0 W/m 8,9 C 9,8 C 2,7 km/h (1 Bft)
04/03/2008 00:00 9,3 C 94 % 1005,9 hPa 0,0 l/m 2,0 km/h (1 Bft) N-NO 0,00 h 0,000 mm 0 W/m 8,4 C 9,3 C 3,2 km/h (1 Bft)
04/03/2008 01:00 9,3 C 95 % 1005,6 hPa 0,0 l/m 3,4 km/h (1 Bft) N-NO 0,00 h 0,000 mm 0 W/m 8,5 C 9,0 C 4,9 km/h (1 Bft)
04/03/2008 02:00 8,4 C 89 % 1005,1 hPa 0,0 l/m 13,2 km/h (3 Bft) SO 0,00 h 0,000 mm 0 W/m 6,5 C 6,4 C 18,7 km/h (3 Bft)
04/03/2008 03:00 12,3 C 30 % 1004,3 hPa 0,0 l/m 19,4 km/h (3 Bft) SO 0,00 h 0,025 mm 0 W/m -4,9 C 12,3 C 25,2 km/h (4 Bft)
04/03/2008 04:00 12,4 C 25 % 1003,6 hPa 0,0 l/m 22,8 km/h (4 Bft) O-SO 0,00 h 0,178 mm 0 W/m -7,1 C 12,4 C 30,8 km/h (5 Bft)
04/03/2008 05:00 11,6 C 28 % 1003,6 hPa 0,0 l/m 28,6 km/h (4 Bft) O-SO 0,00 h 0,203 mm 0 W/m -6,2 C 11,6 C 38,8 km/h (5 Bft)
04/03/2008 06:00 10,6 C 31 % 1004,7 hPa 0,0 l/m 28,8 km/h (4 Bft) O-SO 0,00 h 0,229 mm 0 W/m -6,0 C 10,6 C 40,2 km/h (6 Bft)
04/03/2008 07:00 10,0 C 34 % 1005,2 hPa 0,0 l/m 24,1 km/h (4 Bft) O-SO 0,40 h 0,229 mm 48 W/m -5,3 C 8,0 C 33,7 km/h (5 Bft)
04/03/2008 08:00 11,0 C 34 % 1005,2 hPa 0,0 l/m 27,1 km/h (4 Bft) O-SO 1,00 h 0,203 mm 222 W/m -4,4 C 11,0 C 37,9 km/h (5 Bft)
04/03/2008 09:00 12,3 C 32 % 1005,4 hPa 0,0 l/m 26,2 km/h (4 Bft) O-SO 1,00 h 0,305 mm 394 W/m -4,1 C 12,3 C 37,3 km/h (5 Bft)
04/03/2008 10:00 14,0 C 26 % 1004,9 hPa 0,0 l/m 22,9 km/h (4 Bft) O 1,00 h 0,406 mm 537 W/m -5,4 C 14,0 C 31,8 km/h (5 Bft)
04/03/2008 11:00 15,8 C 17 % 1004,3 hPa 0,0 l/m 17,8 km/h (3 Bft) O-NO 1,00 h 0,483 mm 651 W/m -9,1 C 15,8 C 25,7 km/h (4 Bft)
04/03/2008 12:00 16,5 C 15 % 1004,1 hPa 0,0 l/m 16,9 km/h (3 Bft) O 1,00 h 0,533 mm 658 W/m -9,8 C 16,5 C 24,0 km/h (4 Bft)
04/03/2008 13:00 16,5 C 15 % 1003,2 hPa 0,0 l/m 12,6 km/h (3 Bft) O 0,88 h 0,533 mm 528 W/m -10,0 C 16,5 C 18,9 km/h (3 Bft)
04/03/2008 14:00 16,5 C 18 % 1002,3 hPa 0,0 l/m 26,4 km/h (4 Bft) O-SO 0,92 h 0,432 mm 542 W/m -8,3 C 16,5 C 36,4 km/h (5 Bft)
04/03/2008 15:00 15,1 C 22 % 1001,6 hPa 0,0 l/m 31,3 km/h (5 Bft) SO 0,75 h 0,584 mm 357 W/m -6,5 C 15,1 C 41,7 km/h (6 Bft)
04/03/2008 16:00 14,0 C 24 % 1001,0 hPa 0,0 l/m 26,8 km/h (4 Bft) SO 0,63 h 0,483 mm 194 W/m -6,1 C 14,0 C 35,7 km/h (5 Bft)
04/03/2008 17:00 13,1 C 29 % 1000,6 hPa 0,0 l/m 20,5 km/h (4 Bft) O-SO 0,70 h 0,330 mm 113 W/m -4,8 C 13,1 C 27,2 km/h (4 Bft)
04/03/2008 18:00 11,2 C 30 % 1000,7 hPa 0,0 l/m 16,1 km/h (3 Bft) O-SO 0,08 h 0,229 mm 13 W/m -5,9 C 11,2 C 20,8 km/h (4 Bft)
04/03/2008 19:00 9,9 C 30 % 1001,5 hPa 0,0 l/m 6,9 km/h (2 Bft) O 0,00 h 0,127 mm 0 W/m -6,7 C 9,6 C 9,5 km/h (2 Bft)
04/03/2008 20:00 8,6 C 34 % 1001,5 hPa 0,0 l/m 4,5 km/h (1 Bft) N 0,00 h 0,076 mm 0 W/m -6,2 C 8,2 C 7,7 km/h (2 Bft)
04/03/2008 21:00 8,9 C 39 % 1001,4 hPa 0,0 l/m 8,7 km/h (2 Bft) N-NE 0,00 h 0,076 mm 0 W/m -4,3 C 7,6 C 13,9 km/h (3 Bft)
04/03/2008 22:00 7,7 C 38 % 1001,8 hPa 0,0 l/m 8,1 km/h (2 Bft) N-NE 0,00 h 0,076 mm 0 W/m -5,7 C 6,4 C 11,8 km/h (2 Bft)
04/03/2008 23:00 8,0 C 42 % 1002,2 hPa 0,0 l/m 10,4 km/h (2 Bft) N-NE 0,00 h 0,076 mm 0 W/m -4,3 C 6,1 C 15,9 km/h (3 Bft)
05/03/2008 00:00 8,6 C 44 % 1002,7 hPa 0,4 l/m 15,8 km/h (3 Bft) NE 0,00 h 0,076 mm 0 W/m -3,1 C 6,2 C 23,9 km/h (4 Bft)
05/03/2008 01:00 5,7 C 76 % 1004,0 hPa 0,6 l/m 8,1 km/h (2 Bft) N 0,00 h 0,102 mm 0 W/m 1,8 C 4,2 C 14,1 km/h (3 Bft)
05/03/2008 02:00 5,4 C 70 % 1003,8 hPa 0,2 l/m 4,0 km/h (1 Bft) N 0,00 h 0,025 mm 0 W/m 0,4 C 4,9 C 6,8 km/h (2 Bft)
05/03/2008 03:00 6,2 C 60 % 1003,3 hPa 0,0 l/m 4,4 km/h (1 Bft) E-SE 0,00 h 0,025 mm 0 W/m -0,9 C 5,5 C 6,4 km/h (2 Bft)
05/03/2008 04:00 6,4 C 52 % 1003,3 hPa 0,2 l/m 4,1 km/h (1 Bft) E-NE 0,00 h 0,051 mm 0 W/m -2,8 C 5,9 C 5,8 km/h (2 Bft)
05/03/2008 05:00 6,2 C 50 % 1003,4 hPa 0,0 l/m 3,2 km/h (1 Bft) E-NE 0,00 h 0,051 mm 0 W/m -3,4 C 5,9 C 4,1 km/h (1 Bft)
05/03/2008 06:00 6,5 C 49 % 1003,9 hPa 0,0 l/m 6,6 km/h (2 Bft) O 0,00 h 0,051 mm 0 W/m -3,4 C 5,3 C 8,7 km/h (2 Bft)
05/03/2008 07:00 6,5 C 48 % 1004,2 hPa 0,0 l/m 7,1 km/h (2 Bft) O 0,00 h 0,051 mm 19 W/m -3,7 C 5,2 C 9,2 km/h (2 Bft)
05/03/2008 08:00 7,0 C 46 % 1004,9 hPa 0,0 l/m 5,9 km/h (2 Bft) O 0,00 h 0,051 mm 79 W/m -3,8 C 6,0 C 7,7 km/h (2 Bft)
05/03/2008 09:00 8,2 C 48 % 1005,5 hPa 0,0 l/m 5,6 km/h (1 Bft) SO 0,00 h 0,076 mm 162 W/m -2,1 C 7,5 C 7,9 km/h (2 Bft)
05/03/2008 10:00 8,9 C 50 % 1006,2 hPa 0,0 l/m 7,9 km/h (2 Bft) SO 0,00 h 0,102 mm 212 W/m -1,0 C 7,7 C 10,7 km/h (2 Bft)
05/03/2008 11:00 10,0 C 42 % 1006,8 hPa 0,0 l/m 5,4 km/h (1 Bft) SO 0,25 h 0,152 mm 316 W/m -2,5 C 9,5 C 7,5 km/h (2 Bft)
05/03/2008 12:00 11,5 C 34 % 1007,2 hPa 0,0 l/m 7,5 km/h (2 Bft) NE 0,47 h 0,178 mm 366 W/m -3,9 C 11,5 C 11,6 km/h (2 Bft)
05/03/2008 13:00 12,3 C 26 % 1007,3 hPa 0,0 l/m 13,8 km/h (3 Bft) N-NE 0,68 h 0,229 mm 451 W/m -6,5 C 12,3 C 21,2 km/h (4 Bft)
05/03/2008 14:00 12,1 C 26 % 1007,6 hPa 0,0 l/m 8,6 km/h (2 Bft) N-NE 0,23 h 0,330 mm 291 W/m -6,9 C 12,1 C 13,8 km/h (3 Bft)
05/03/2008 15:00 12,1 C 27 % 1008,2 hPa 0,0 l/m 8,4 km/h (2 Bft) N-NE 0,63 h 0,229 mm 263 W/m -6,4 C 12,1 C 12,7 km/h (3 Bft)
05/03/2008 16:00 11,2 C 29 % 1008,6 hPa 0,0 l/m 10,6 km/h (2 Bft) E-NE 0,00 h 0,203 mm 150 W/m -6,1 C 11,2 C 15,5 km/h (3 Bft)
05/03/2008 17:00 10,1 C 30 % 1009,3 hPa 0,0 l/m 14,6 km/h (3 Bft) E-NE 0,12 h 0,152 mm 70 W/m -6,7 C 9,1 C 20,7 km/h (4 Bft)
05/03/2008 18:00 9,1 C 30 % 1010,2 hPa 0,0 l/m 12,5 km/h (3 Bft) NE 0,00 h 0,152 mm 10 W/m -7,4 C 7,2 C 18,7 km/h (3 Bft)
05/03/2008 19:00 8,0 C 31 % 1011,1 hPa 0,0 l/m 6,8 km/h (2 Bft) N-NE 0,00 h 0,102 mm 0 W/m -8,1 C 7,0 C 10,3 km/h (2 Bft)
05/03/2008 20:00 6,7 C 34 % 1011,7 hPa 0,0 l/m 3,8 km/h (1 Bft) N 0,00 h 0,076 mm 0 W/m -8,1 C 6,3 C 6,3 km/h (2 Bft)
05/03/2008 21:00 6,0 C 34 % 1012,2 hPa 0,0 l/m 4,4 km/h (1 Bft) N-NO 0,00 h 0,051 mm 0 W/m -8,5 C 5,4 C 6,9 km/h (2 Bft)
05/03/2008 22:00 6,0 C 33 % 1012,3 hPa 0,0 l/m 3,2 km/h (1 Bft) N-NO 0,00 h 0,051 mm 0 W/m -9,0 C 5,6 C 5,5 km/h (1 Bft)
05/03/2008 23:00 5,6 C 34 % 1012,4 hPa 0,0 l/m 2,2 km/h (1 Bft) N 0,00 h 0,051 mm 0 W/m -9,0 C 5,5 C 4,8 km/h (1 Bft)
06/03/2008 00:00 5,7 C 31 % 1012,3 hPa 0,0 l/m 1,8 km/h (1 Bft) N 0,00 h 0,051 mm 0 W/m -10,3 C 5,6 C 3,4 km/h (1 Bft)
06/03/2008 01:00 5,8 C 30 % 1012,7 hPa 0,0 l/m 2,7 km/h (1 Bft) E 0,00 h 0,051 mm 0 W/m -10,4 C 5,5 C 4,6 km/h (1 Bft)
06/03/2008 02:00 5,0 C 32 % 1012,3 hPa 0,0 l/m 3,7 km/h (1 Bft) NO 0,00 h 0,051 mm 0 W/m -10,4 C 4,5 C 5,5 km/h (1 Bft)
06/03/2008 03:00 4,7 C 33 % 1011,6 hPa 0,0 l/m 3,7 km/h (1 Bft) S-SE 0,00 h 0,051 mm 0 W/m -10,4 C 4,2 C 5,3 km/h (1 Bft)
06/03/2008 04:00 4,5 C 32 % 1011,6 hPa 0,0 l/m 5,5 km/h (1 Bft) S-SO 0,00 h 0,051 mm 0 W/m -10,8 C 3,4 C 6,8 km/h (2 Bft)
06/03/2008 05:00 4,2 C 31 % 1011,6 hPa 0,0 l/m 2,2 km/h (1 Bft) O-SO 0,00 h 0,051 mm 0 W/m -11,3 C 3,8 C 3,3 km/h (1 Bft)
06/03/2008 06:00 4,4 C 32 % 1011,6 hPa 0,0 l/m 7,3 km/h (2 Bft) O 0,00 h 0,051 mm 5 W/m -10,8 C 2,6 C 9,4 km/h (2 Bft)
06/03/2008 07:00 4,4 C 33 % 1011,2 hPa 0,0 l/m 8,5 km/h (2 Bft) O-NO 0,17 h 0,051 mm 34 W/m -10,6 C 2,3 C 10,6 km/h (2 Bft)
06/03/2008 08:00 5,6 C 34 % 1011,1 hPa 0,0 l/m 5,2 km/h (1 Bft) O 0,13 h 0,076 mm 109 W/m -9,0 C 4,7 C 7,4 km/h (2 Bft)
06/03/2008 09:00 5,7 C 35 % 1011,3 hPa 0,0 l/m 6,9 km/h (2 Bft) O-NO 0,00 h 0,076 mm 117 W/m -8,4 C 4,4 C 9,0 km/h (2 Bft)
06/03/2008 10:00 7,9 C 32 % 1011,0 hPa 0,0 l/m 8,4 km/h (2 Bft) O-NO 0,35 h 0,102 mm 338 W/m -7,9 C 6,6 C 11,5 km/h (2 Bft)
06/03/2008 11:00 11,1 C 24 % 1010,3 hPa 0,0 l/m 7,5 km/h (2 Bft) SO 0,90 h 0,203 mm 594 W/m -8,7 C 11,1 C 10,9 km/h (2 Bft)
06/03/2008 12:00 11,4 C 23 % 1009,6 hPa 0,0 l/m 6,0 km/h (2 Bft) S-SO 0,47 h 0,330 mm 430 W/m -8,9 C 11,4 C 8,6 km/h (2 Bft)
06/03/2008 13:00 12,5 C 23 % 1009,0 hPa 0,0 l/m 4,8 km/h (1 Bft) S-SE 0,82 h 0,254 mm 506 W/m -8,2 C 12,5 C 8,1 km/h (2 Bft)
06/03/2008 14:00 11,9 C 27 % 1009,0 hPa 0,0 l/m 6,7 km/h (2 Bft) S-SE 0,47 h 0,305 mm 282 W/m -6,3 C 11,9 C 10,6 km/h (2 Bft)
06/03/2008 15:00 10,9 C 29 % 1009,0 hPa 0,0 l/m 9,2 km/h (2 Bft) S-SO 0,22 h 0,203 mm 196 W/m -6,3 C 10,9 C 12,2 km/h (3 Bft)
06/03/2008 16:00 11,1 C 30 % 1008,3 hPa 0,0 l/m 8,3 km/h (2 Bft) SO 0,13 h 0,178 mm 122 W/m -5,8 C 11,1 C 11,5 km/h (2 Bft)
06/03/2008 17:00 10,4 C 35 % 1008,4 hPa 0,0 l/m 4,6 km/h (1 Bft) S-SE 0,00 h 0,127 mm 39 W/m -4,2 C 10,4 C 6,4 km/h (2 Bft)
06/03/2008 18:00 9,4 C 42 % 1009,7 hPa 0,0 l/m 3,8 km/h (1 Bft) S-SO 0,00 h 0,051 mm 0 W/m -3,0 C 9,2 C 6,5 km/h (2 Bft)
06/03/2008 19:00 8,2 C 54 % 1010,7 hPa 0,0 l/m 3,7 km/h (1 Bft) N 0,00 h 0,025 mm 0 W/m -0,6 C 7,9 C 6,8 km/h (2 Bft)
06/03/2008 20:00 6,3 C 72 % 1010,0 hPa 0,2 l/m 4,2 km/h (1 Bft) O-SO 0,00 h 0,051 mm 0 W/m 1,7 C 5,8 C 6,0 km/h (2 Bft)
06/03/2008 21:00 5,8 C 77 % 1009,4 hPa 0,0 l/m 4,5 km/h (1 Bft) O 0,00 h 0,025 mm 0 W/m 2,1 C 5,2 C 6,3 km/h (2 Bft)
06/03/2008 22:00 5,9 C 77 % 1008,7 hPa 0,0 l/m 7,0 km/h (2 Bft) O 0,00 h 0,025 mm 0 W/m 2,1 C 4,6 C 9,6 km/h (2 Bft)
06/03/2008 23:00 6,3 C 71 % 1008,0 hPa 0,0 l/m 7,6 km/h (2 Bft) O 0,00 h 0,025 mm 0 W/m 1,5 C 4,9 C 11,1 km/h (2 Bft)
07/03/2008 00:00 6,7 C 65 % 1007,6 hPa 0,0 l/m 11,0 km/h (2 Bft) O-SO 0,00 h 0,025 mm 0 W/m 0,6 C 4,6 C 15,8 km/h (3 Bft)
07/03/2008 01:00 6,6 C 66 % 1008,3 hPa 0,2 l/m 7,8 km/h (2 Bft) O-SO 0,00 h 0,051 mm 0 W/m 0,7 C 5,2 C 11,3 km/h (2 Bft)
07/03/2008 02:00 5,8 C 75 % 1006,5 hPa 0,0 l/m 14,3 km/h (3 Bft) SO 0,00 h 0,051 mm 0 W/m 1,7 C 2,9 C 18,5 km/h (3 Bft)
07/03/2008 03:00 5,8 C 75 % 1006,6 hPa 0,0 l/m 9,0 km/h (2 Bft) O-SO 0,00 h 0,051 mm 0 W/m 1,7 C 3,9 C 13,7 km/h (3 Bft)
07/03/2008 04:00 5,5 C 77 % 1006,1 hPa 0,2 l/m 13,1 km/h (3 Bft) O-SO 0,00 h 0,025 mm 0 W/m 1,9 C 2,8 C 17,8 km/h (3 Bft)
07/03/2008 05:00 4,9 C 84 % 1006,6 hPa 0,8 l/m 1,3 km/h (1 Bft) O-NO 0,00 h 0,051 mm 0 W/m 2,4 C 4,8 C 2,5 km/h (1 Bft)
07/03/2008 06:00 4,9 C 87 % 1006,3 hPa 0,6 l/m 1,0 km/h (0 Bft) O-NO 0,00 h 0,025 mm 0 W/m 2,9 C 4,8 C 2,0 km/h (1 Bft)
07/03/2008 07:00 5,2 C 90 % 1006,3 hPa 0,2 l/m 6,1 km/h (2 Bft) O-NO 0,00 h 0,000 mm 10 W/m 3,6 C 3,9 C 8,4 km/h (2 Bft)
07/03/2008 08:00 5,4 C 91 % 1006,1 hPa 0,0 l/m 7,9 km/h (2 Bft) O 0,00 h 0,025 mm 29 W/m 4,1 C 3,8 C 10,6 km/h (2 Bft)
07/03/2008 09:00 6,2 C 92 % 1005,9 hPa 0,2 l/m 3,7 km/h (1 Bft) NO 0,00 h 0,025 mm 108 W/m 5,1 C 5,9 C 5,6 km/h (1 Bft)
07/03/2008 10:00 7,1 C 93 % 1005,8 hPa 0,0 l/m 9,3 km/h (2 Bft) O-SO 0,00 h 0,051 mm 129 W/m 6,1 C 5,4 C 13,4 km/h (3 Bft)
07/03/2008 11:00 8,2 C 91 % 1005,6 hPa 0,0 l/m 8,6 km/h (2 Bft) O-SO 0,00 h 0,076 mm 181 W/m 6,7 C 6,8 C 12,4 km/h (3 Bft)
07/03/2008 12:00 9,2 C 85 % 1005,0 hPa 0,0 l/m 12,1 km/h (2 Bft) SO 0,00 h 0,102 mm 210 W/m 6,8 C 7,4 C 16,0 km/h (3 Bft)
07/03/2008 13:00 9,7 C 77 % 1004,6 hPa 0,0 l/m 10,8 km/h (2 Bft) SO 0,00 h 0,127 mm 177 W/m 5,8 C 8,2 C 14,9 km/h (3 Bft)
07/03/2008 14:00 9,7 C 70 % 1004,2 hPa 0,0 l/m 12,3 km/h (3 Bft) SO 0,00 h 0,102 mm 161 W/m 4,4 C 7,9 C 16,7 km/h (3 Bft)
07/03/2008 15:00 9,8 C 67 % 1004,4 hPa 0,0 l/m 8,1 km/h (2 Bft) SO 0,00 h 0,127 mm 119 W/m 4,0 C 8,8 C 10,8 km/h (2 Bft)
07/03/2008 16:00 9,2 C 68 % 1004,7 hPa 0,0 l/m 6,8 km/h (2 Bft) SO 0,00 h 0,076 mm 69 W/m 3,5 C 8,4 C 8,7 km/h (2 Bft)
07/03/2008 17:00 8,6 C 66 % 1004,8 hPa 0,0 l/m 6,4 km/h (2 Bft) O-SO 0,00 h 0,051 mm 29 W/m 2,5 C 7,8 C 8,5 km/h (2 Bft)
07/03/2008 18:00 7,5 C 75 % 1005,3 hPa 0,2 l/m 1,7 km/h (1 Bft) SO 0,00 h 0,051 mm 6 W/m 3,4 C 7,5 C 2,8 km/h (1 Bft)
07/03/2008 19:00 7,0 C 80 % 1005,9 hPa 0,2 l/m 0,6 km/h (0 Bft) SO 0,00 h 0,000 mm 0 W/m 3,8 C 7,0 C 1,1 km/h (1 Bft)
07/03/2008 20:00 6,4 C 82 % 1006,3 hPa 0,0 l/m 0,4 km/h (0 Bft) SO 0,00 h 0,025 mm 0 W/m 3,5 C 6,4 C 0,5 km/h (0 Bft)
07/03/2008 21:00 6,6 C 79 % 1006,2 hPa 0,0 l/m 1,6 km/h (1 Bft) SO 0,00 h 0,025 mm 0 W/m 3,1 C 6,5 C 2,6 km/h (1 Bft)
07/03/2008 22:00 6,7 C 80 % 1006,7 hPa 0,0 l/m 2,6 km/h (1 Bft) O 0,00 h 0,025 mm 0 W/m 3,6 C 6,4 C 3,8 km/h (1 Bft)
07/03/2008 23:00 7,6 C 79 % 1007,1 hPa 0,0 l/m 1,9 km/h (1 Bft) O 0,00 h 0,025 mm 0 W/m 4,1 C 7,5 C 3,1 km/h (1 Bft)
08/03/2008 00:00 7,5 C 80 % 1007,0 hPa 0,0 l/m 0,4 km/h (0 Bft) NO 0,00 h 0,025 mm 0 W/m 4,3 C 7,5 C 0,6 km/h (0 Bft)
08/03/2008 01:00 7,7 C 80 % 1006,8 hPa 0,0 l/m 2,1 km/h (1 Bft) NO 0,00 h 0,025 mm 0 W/m 4,5 C 7,6 C 3,2 km/h (1 Bft)
08/03/2008 02:00 7,5 C 82 % 1006,7 hPa 0,0 l/m 2,0 km/h (1 Bft) NO 0,00 h 0,025 mm 0 W/m 4,6 C 7,3 C 3,4 km/h (1 Bft)
08/03/2008 03:00 7,5 C 85 % 1006,4 hPa 0,0 l/m 0,1 km/h (0 Bft) O-NO 0,00 h 0,025 mm 0 W/m 5,2 C 7,5 C 0,2 km/h (0 Bft)
08/03/2008 04:00 7,4 C 85 % 1006,3 hPa 0,0 l/m 0,6 km/h (0 Bft) O-NO 0,00 h 0,025 mm 0 W/m 5,1 C 7,4 C 1,1 km/h (0 Bft)
08/03/2008 05:00 7,5 C 84 % 1006,5 hPa 0,0 l/m 0,9 km/h (0 Bft) O-NO 0,00 h 0,025 mm 0 W/m 5,0 C 7,5 C 1,8 km/h (1 Bft)
08/03/2008 06:00 7,4 C 82 % 1006,4 hPa 0,0 l/m 1,7 km/h (1 Bft) O-NO 0,00 h 0,025 mm 0 W/m 4,6 C 7,4 C 3,1 km/h (1 Bft)
08/03/2008 07:00 7,5 C 82 % 1006,8 hPa 0,0 l/m 3,6 km/h (1 Bft) O-NO 0,00 h 0,000 mm 27 W/m 4,7 C 7,2 C 4,9 km/h (1 Bft)
08/03/2008 08:00 8,1 C 86 % 1007,4 hPa 0,2 l/m 1,1 km/h (1 Bft) O-NO 0,00 h 0,025 mm 80 W/m 5,8 C 8,1 C 2,0 km/h (1 Bft)
08/03/2008 09:00 9,0 C 87 % 1007,8 hPa 0,0 l/m 0,0 km/h (0 Bft) N 0,00 h 0,051 mm 96 W/m 6,9 C 9,0 C 0,0 km/h (0 Bft)
08/03/2008 10:00 9,8 C 84 % 1008,1 hPa 0,0 l/m 2,3 km/h (1 Bft) O-NO 0,48 h 0,051 mm 283 W/m 7,2 C 9,8 C 3,8 km/h (1 Bft)
08/03/2008 11:00 10,1 C 83 % 1008,3 hPa 0,0 l/m 4,6 km/h (1 Bft) E 0,00 h 0,127 mm 142 W/m 7,4 C 10,0 C 7,3 km/h (2 Bft)
08/03/2008 12:00 10,2 C 84 % 1008,6 hPa 0,0 l/m 7,2 km/h (2 Bft) E 0,00 h 0,076 mm 217 W/m 7,5 C 9,9 C 9,5 km/h (2 Bft)
08/03/2008 13:00 10,4 C 77 % 1008,4 hPa 0,0 l/m 5,2 km/h (1 Bft) E 0,00 h 0,127 mm 147 W/m 6,6 C 10,4 C 8,2 km/h (2 Bft)
08/03/2008 14:00 9,9 C 76 % 1008,5 hPa 0,0 l/m 2,9 km/h (1 Bft) SE 0,00 h 0,076 mm 94 W/m 5,8 C 9,9 C 5,4 km/h (1 Bft)
08/03/2008 15:00 9,6 C 76 % 1008,8 hPa 0,0 l/m 2,7 km/h (1 Bft) S-SE 0,00 h 0,051 mm 78 W/m 5,7 C 9,6 C 4,9 km/h (1 Bft)
08/03/2008 16:00 9,6 C 78 % 1008,9 hPa 0,0 l/m 0,8 km/h (0 Bft) SE 0,00 h 0,051 mm 45 W/m 5,9 C 9,6 C 1,8 km/h (1 Bft)
08/03/2008 17:00 9,5 C 80 % 1009,1 hPa 0,0 l/m 0,1 km/h (0 Bft) SE 0,00 h 0,025 mm 21 W/m 6,2 C 9,5 C 0,4 km/h (0 Bft)
08/03/2008 18:00 9,2 C 85 % 1009,5 hPa 0,0 l/m 3,2 km/h (1 Bft) SE 0,00 h 0,025 mm 6 W/m 6,8 C 9,1 C 4,7 km/h (1 Bft)
08/03/2008 19:00 8,5 C 89 % 1010,0 hPa 0,0 l/m 2,0 km/h (1 Bft) SE 0,00 h 0,000 mm 0 W/m 6,8 C 8,4 C 3,1 km/h (1 Bft)
08/03/2008 20:00 8,1 C 91 % 1010,4 hPa 0,0 l/m 0,0 km/h (0 Bft) SE 0,00 h 0,025 mm 0 W/m 6,6 C 8,1 C 0,2 km/h (0 Bft)
08/03/2008 21:00 8,0 C 91 % 1010,6 hPa 0,0 l/m 0,0 km/h (0 Bft) N 0,00 h 0,000 mm 0 W/m 6,7 C 8,0 C 0,1 km/h (0 Bft)
08/03/2008 22:00 7,9 C 92 % 1010,8 hPa 0,0 l/m 0,0 km/h (0 Bft) N 0,00 h 0,000 mm 0 W/m 6,7 C 7,9 C 0,0 km/h (0 Bft)
08/03/2008 23:00 7,7 C 92 % 1010,8 hPa 0,0 l/m 0,0 km/h (0 Bft) N 0,00 h 0,000 mm 0 W/m 6,5 C 7,7 C 0,0 km/h (0 Bft)
09/03/2008 00:00 7,6 C 93 % 1010,8 hPa 0,0 l/m 0,0 km/h (0 Bft) N 0,00 h 0,000 mm 0 W/m 6,5 C 7,6 C 0,0 km/h (0 Bft)
09/03/2008 01:00 7,1 C 93 % 1010,8 hPa 0,0 l/m 0,0 km/h (0 Bft) N 0,00 h 0,000 mm 0 W/m 6,0 C 7,1 C 0,0 km/h (0 Bft)
09/03/2008 02:00 7,2 C 93 % 1010,7 hPa 0,0 l/m 1,7 km/h (1 Bft) SE 0,00 h 0,000 mm 0 W/m 6,1 C 7,1 C 2,6 km/h (1 Bft)
09/03/2008 03:00 7,0 C 93 % 1010,2 hPa 0,0 l/m 4,7 km/h (1 Bft) O-NO 0,00 h 0,000 mm 0 W/m 5,9 C 6,4 C 5,8 km/h (2 Bft)
09/03/2008 04:00 6,2 C 93 % 1009,8 hPa 0,0 l/m 2,7 km/h (1 Bft) O-NO 0,00 h 0,000 mm 0 W/m 5,2 C 6,1 C 4,0 km/h (1 Bft)
09/03/2008 05:00 5,6 C 94 % 1009,5 hPa 0,0 l/m 1,1 km/h (1 Bft) O-NO 0,00 h 0,000 mm 0 W/m 4,7 C 5,6 C 1,9 km/h (1 Bft)
09/03/2008 06:00 6,0 C 94 % 1009,7 hPa 0,0 l/m 0,9 km/h (0 Bft) O-NO 0,00 h 0,000 mm 0 W/m 5,1 C 6,0 C 1,4 km/h (1 Bft)
09/03/2008 07:00 6,7 C 94 % 1010,0 hPa 0,0 l/m 1,2 km/h (1 Bft) O-NO 0,00 h 0,000 mm 17 W/m 5,8 C 6,7 C 1,8 km/h (1 Bft)
09/03/2008 08:00 7,4 C 94 % 1010,2 hPa 0,0 l/m 1,0 km/h (0 Bft) O-NO 0,00 h 0,000 mm 60 W/m 6,5 C 7,4 C 2,2 km/h (1 Bft)
09/03/2008 09:00 8,1 C 94 % 1010,5 hPa 0,0 l/m 0,0 km/h (0 Bft) N 0,00 h 0,025 mm 107 W/m 7,1 C 8,1 C 0,1 km/h (0 Bft)
09/03/2008 10:00 9,2 C 86 % 1010,6 hPa 0,0 l/m 0,2 km/h (0 Bft) O-NO 0,00 h 0,051 mm 159 W/m 7,0 C 9,2 C 0,6 km/h (0 Bft)
09/03/2008 11:00 10,8 C 79 % 1010,4 hPa 0,0 l/m 1,6 km/h (1 Bft) O-NO 0,45 h 0,076 mm 352 W/m 7,3 C 10,8 C 3,3 km/h (1 Bft)
09/03/2008 12:00 12,7 C 72 % 1009,8 hPa 0,0 l/m 4,8 km/h (1 Bft) E 0,52 h 0,178 mm 403 W/m 7,8 C 12,7 C 8,5 km/h (2 Bft)
09/03/2008 13:00 12,2 C 73 % 1009,4 hPa 0,0 l/m 4,9 km/h (1 Bft) E 0,00 h 0,229 mm 297 W/m 7,5 C 12,2 C 8,2 km/h (2 Bft)
09/03/2008 14:00 11,8 C 72 % 1009,1 hPa 0,0 l/m 7,2 km/h (2 Bft) S-SE 0,13 h 0,152 mm 246 W/m 7,0 C 11,8 C 10,9 km/h (2 Bft)
09/03/2008 15:00 12,2 C 72 % 1008,7 hPa 0,0 l/m 6,0 km/h (2 Bft) SE 0,57 h 0,152 mm 302 W/m 7,2 C 12,2 C 10,0 km/h (2 Bft)
09/03/2008 16:00 11,4 C 76 % 1008,4 hPa 0,0 l/m 10,5 km/h (2 Bft) S-SE 0,05 h 0,152 mm 162 W/m 7,2 C 11,4 C 15,1 km/h (3 Bft)
09/03/2008 17:00 10,6 C 78 % 1008,5 hPa 0,0 l/m 7,0 km/h (2 Bft) S 0,00 h 0,102 mm 20 W/m 7,0 C 10,6 C 10,1 km/h (2 Bft)
09/03/2008 18:00 10,0 C 83 % 1008,8 hPa 0,0 l/m 1,5 km/h (1 Bft) S 0,00 h 0,025 mm 6 W/m 7,1 C 9,9 C 2,9 km/h (1 Bft)
09/03/2008 19:00 9,4 C 85 % 1008,8 hPa 0,0 l/m 5,8 km/h (2 Bft) O-SO 0,00 h 0,000 mm 0 W/m 7,0 C 8,8 C 7,8 km/h (2 Bft)
09/03/2008 20:00 9,1 C 84 % 1008,8 hPa 0,0 l/m 6,4 km/h (2 Bft) O-SO 0,00 h 0,025 mm 0 W/m 6,5 C 8,3 C 8,7 km/h (2 Bft)
09/03/2008 21:00 9,1 C 83 % 1009,1 hPa 0,0 l/m 4,1 km/h (1 Bft) SO 0,00 h 0,025 mm 0 W/m 6,5 C 8,8 C 6,1 km/h (2 Bft)
09/03/2008 22:00 8,9 C 85 % 1009,0 hPa 0,0 l/m 0,7 km/h (0 Bft) SO 0,00 h 0,025 mm 0 W/m 6,5 C 8,9 C 1,4 km/h (1 Bft)
09/03/2008 23:00 8,7 C 87 % 1008,8 hPa 0,0 l/m 1,1 km/h (1 Bft) O-SO 0,00 h 0,025 mm 0 W/m 6,6 C 8,7 C 1,9 km/h (1 Bft)
Min-Date _ 06/03/08 04/03/08 04/03/08 - 03/03/08 - - - - 06/03/08 06/03/08 03/03/08
_ Min-Heure 05:24 11:48 18:00 - 00:02 - - - - 05:54 03:59 00:02
Minimum _ 3,7 C 14 % 1000,3 hPa - 0,0 km/h (0 Bft) - - - - -11,8 C 1,1 C 0,0 km/h (0 Bft)
Max-Date _ 04/03/08 09/03/08 06/03/08 07/03/08 04/03/08 - 03/03/08 04/03/08 06/03/08 03/03/08 04/03/08 04/03/08
_ Max-Heure 12:05 05:19 01:30 05:00 05:23 - 07:19 15:00 12:45 13:30 12:05 05:14
Maximum _ 17,1 C 98 % 1012,8 hPa 0,8 l/m 43,5 km/h
O-SO (6 Bft)
- 0,02 h 0,584 mm 863 W/m 11,5 C 17,1 C 64,4 km/h
O-SO (8 Bft)
Moyenne _ 9,1 C 65 % 1007,7 hPa #4,6 l/m 6,5 km/h (2 Bft) O-SO #26:47 h #16,679 mm 219 W/m 1,4 C 8,7 C 9,4 km/h (2 Bft)
Roquefort les pins